Terminal Aerodrome Forecast
Issued by NWS

Home | Current Version | Previous Version | Text Only | Print | Product List | Glossary On
Versions: 1 2 3 4 5 6 7 8 9 10 11 12 13 14 15 16 17 18 19
113
FTUS43 KLSX 202200 AAD
TAFCPS
TAF AMD
KCPS 202247Z 2023/2118 02011KT 4SM BR OVC009
     FM210200 35005KT P6SM OVC007
     FM211400 33008KT P6SM BKN020=

USA.gov is the U.S. government's official web portal to all federal, state and local government web resources and services.